Time;durP1;ratioP1;P1;durP2;ratioP2;P2;SDS_P1;SDS_P2;PMS_P1;PMS_P2;Temp;Humidity;BMP_temperature;BMP_pressure;BME280_temperature;BME280_humidity;BME280_pressure;Samples;Min_cycle;Max_cycle;Signal;HPM_P1;HPM_P2
2022/09/02 00:01:52;;;;;;;6.35;3.78;;;;;;;;;;10599355;27;20496;-74
2022/09/02 00:07:08;;;;;;;7.50;3.63;;;;;;;;;;10591749;27;20049;-75
2022/09/02 00:12:15;;;;;;;5.82;3.60;;;;;;;;;;10610483;27;20115;-74
2022/09/02 00:17:21;;;;;;;6.00;3.80;;;;;;;;;;10593623;27;20698;-76
2022/09/02 00:22:29;;;;;;;9.65;4.22;;;;;;;;;;10603446;27;20047;-76
2022/09/02 00:27:33;;;;;;;8.65;4.20;;;;;;;;;;10573065;27;20036;-74
2022/09/02 00:32:38;;;;;;;6.97;3.65;;;;;;;;;;10606326;27;20096;-76
2022/09/02 00:37:48;;;;;;;9.32;3.90;;;;;;;;;;10599488;27;20460;-77
2022/09/02 00:42:55;;;;;;;8.90;3.80;;;;;;;;;;10590344;27;20046;-74
2022/09/02 00:47:59;;;;;;;7.07;4.15;;;;;;;;;;10589706;27;20043;-74
2022/09/02 00:53:17;;;;;;;7.38;4.15;;;;;;;;;;10604948;27;20539;-74
2022/09/02 00:58:26;;;;;;;8.43;4.22;;;;;;;;;;10610096;27;20047;-74
2022/09/02 01:03:40;;;;;;;7.28;4.20;;;;;;;;;;10586570;27;20495;-74
2022/09/02 01:08:59;;;;;;;6.00;3.72;;;;;;;;;;10606774;27;20043;-74
2022/09/02 01:14:06;;;;;;;8.10;4.13;;;;;;;;;;10609175;27;20408;-74
2022/09/02 01:19:15;;;;;;;6.68;4.07;;;;;;;;;;10607160;27;20400;-74
2022/09/02 01:24:23;;;;;;;7.43;4.22;;;;;;;;;;10585892;27;20043;-74
2022/09/02 01:29:30;;;;;;;7.80;4.40;;;;;;;;;;10573694;27;20074;-74
2022/09/02 01:34:42;;;;;;;8.57;4.55;;;;;;;;;;10586844;27;20161;-76
2022/09/02 01:39:47;;;;;;;9.43;3.97;;;;;;;;;;10584805;27;20063;-75
2022/09/02 01:44:51;;;;;;;7.82;4.00;;;;;;;;;;10601044;27;20198;-74
2022/09/02 01:49:57;;;;;;;5.93;3.85;;;;;;;;;;10593243;27;20044;-74
2022/09/02 01:55:05;;;;;;;7.80;4.00;;;;;;;;;;10591153;27;20082;-75
2022/09/02 02:00:10;;;;;;;6.22;3.72;;;;;;;;;;10604069;27;20368;-74
2022/09/02 02:05:19;;;;;;;8.48;4.32;;;;;;;;;;10608820;27;20442;-74
2022/09/02 02:10:30;;;;;;;7.63;4.25;;;;;;;;;;10603279;27;20106;-73
2022/09/02 02:15:37;;;;;;;7.25;3.90;;;;;;;;;;10603099;27;20042;-74
2022/09/02 02:20:46;;;;;;;6.75;3.83;;;;;;;;;;10568572;27;20131;-74
2022/09/02 02:25:52;;;;;;;6.88;4.50;;;;;;;;;;10588187;27;20073;-74
2022/09/02 02:30:58;;;;;;;5.85;3.75;;;;;;;;;;10605031;27;20039;-74
2022/09/02 02:36:05;;;;;;;7.97;3.92;;;;;;;;;;10590196;28;20130;-74
2022/09/02 02:41:19;;;;;;;5.97;3.85;;;;;;;;;;10598781;28;20054;-74
2022/09/02 02:46:26;;;;;;;5.93;4.13;;;;;;;;;;10606195;27;20050;-73
2022/09/02 02:51:29;;;;;;;5.85;4.20;;;;;;;;;;10607060;27;20066;-73
2022/09/02 02:56:36;;;;;;;6.45;4.22;;;;;;;;;;10597568;27;20127;-73
2022/09/02 03:01:41;;;;;;;8.00;4.05;;;;;;;;;;10600561;27;20057;-75
2022/09/02 03:06:48;;;;;;;6.63;4.35;;;;;;;;;;10609405;27;20069;-74
2022/09/02 03:11:51;;;;;;;;;;;;;;;;;;10615148;27;20038;-74
2022/09/02 03:16:56;;;;;;;7.60;4.10;;;;;;;;;;10595362;27;20383;-72
2022/09/02 03:22:01;;;;;;;6.30;4.07;;;;;;;;;;10611452;27;20335;-73
2022/09/02 03:27:06;;;;;;;7.28;4.22;;;;;;;;;;10595503;27;20495;-73
2022/09/02 03:32:14;;;;;;;7.82;4.75;;;;;;;;;;10613103;27;20041;-73
2022/09/02 03:37:20;;;;;;;9.15;3.95;;;;;;;;;;10596514;27;20079;-73
2022/09/02 03:42:24;;;;;;;6.35;4.25;;;;;;;;;;10613001;27;20055;-75
2022/09/02 03:47:31;;;;;;;7.25;4.28;;;;;;;;;;10614038;27;20474;-73
2022/09/02 03:52:38;;;;;;;8.82;4.45;;;;;;;;;;10611181;27;20035;-74
2022/09/02 03:57:43;;;;;;;7.32;4.57;;;;;;;;;;10613079;27;20043;-74
2022/09/02 04:03:02;;;;;;;7.47;4.78;;;;;;;;;;10610913;27;20411;-75
2022/09/02 04:08:07;;;;;;;9.27;4.97;;;;;;;;;;10591019;27;20055;-74
2022/09/02 04:13:16;;;;;;;10.18;5.43;;;;;;;;;;10607816;27;20092;-74
2022/09/02 04:18:25;;;;;;;9.77;4.80;;;;;;;;;;10593885;27;20047;-74
2022/09/02 04:23:40;;;;;;;11.95;4.63;;;;;;;;;;10607230;27;20035;-74
2022/09/02 04:28:47;;;;;;;9.68;5.30;;;;;;;;;;10572523;27;20059;-75
2022/09/02 04:34:05;;;;;;;9.70;4.95;;;;;;;;;;10545371;27;20188;-75
2022/09/02 04:39:10;;;;;;;9.80;5.65;;;;;;;;;;10533281;28;20039;-75
2022/09/02 04:44:22;;;;;;;8.40;5.13;;;;;;;;;;10537973;28;20055;-76
2022/09/02 04:49:32;;;;;;;10.82;5.53;;;;;;;;;;10563505;28;20047;-75
2022/09/02 04:54:38;;;;;;;9.13;5.00;;;;;;;;;;10571748;27;20038;-75
2022/09/02 04:59:43;;;;;;;12.13;5.10;;;;;;;;;;10548721;27;20032;-74
2022/09/02 05:04:51;;;;;;;13.32;5.78;;;;;;;;;;10554675;28;20040;-73
2022/09/02 05:10:01;;;;;;;10.57;5.65;;;;;;;;;;10568743;27;20039;-74
2022/09/02 05:15:07;;;;;;;9.32;5.65;;;;;;;;;;10566033;27;20044;-73
2022/09/02 05:20:13;;;;;;;11.50;5.68;;;;;;;;;;10568128;27;20039;-74
2022/09/02 05:25:18;;;;;;;11.65;5.82;;;;;;;;;;10568463;27;20492;-74
2022/09/02 05:30:24;;;;;;;11.38;5.45;;;;;;;;;;10563919;27;20079;-74
2022/09/02 05:35:31;;;;;;;12.07;5.63;;;;;;;;;;10569091;27;20651;-74
2022/09/02 05:40:42;;;;;;;7.85;4.95;;;;;;;;;;10567167;27;20139;-74
2022/09/02 05:45:48;;;;;;;8.38;5.07;;;;;;;;;;10526239;28;20049;-74
2022/09/02 05:50:56;;;;;;;10.88;4.82;;;;;;;;;;10565276;27;20027;-74
2022/09/02 05:56:03;;;;;;;8.07;4.75;;;;;;;;;;10544654;28;20957;-75
2022/09/02 06:01:10;;;;;;;9.32;5.10;;;;;;;;;;10529777;28;20040;-75
2022/09/02 06:06:21;;;;;;;9.25;4.75;;;;;;;;;;10557089;27;20042;-75
2022/09/02 06:11:38;;;;;;;7.15;4.75;;;;;;;;;;10547178;27;20034;-74
2022/09/02 06:16:43;;;;;;;9.80;5.18;;;;;;;;;;10545683;27;20487;-75
2022/09/02 06:21:56;;;;;;;9.10;4.50;;;;;;;;;;10556371;28;20535;-75
2022/09/02 06:27:02;;;;;;;;;;;;;;;;;;10521894;27;20112;-75
2022/09/02 06:32:11;;;;;;;9.57;4.75;;;;;;;;;;10556597;27;20280;-74
2022/09/02 06:37:36;;;;;;;7.28;4.10;;;;;;;;;;10554562;28;20048;-75
2022/09/02 06:42:52;;;;;;;10.88;4.57;;;;;;;;;;10540115;27;20046;-76
2022/09/02 06:47:57;;;;;;;5.88;3.78;;;;;;;;;;10547659;27;20413;-75
2022/09/02 06:53:02;;;;;;;;;;;;;;;;;;10546444;27;20119;-75
2022/09/02 06:58:09;;;;;;;4.15;3.08;;;;;;;;;;10562662;27;19927;-74
2022/09/02 07:08:44;;;;;;;5.82;3.30;;;;;;;;;;10542591;27;20038;-78
2022/09/02 07:14:05;;;;;;;3.72;2.58;;;;;;;;;;10548231;27;20038;-74
2022/09/02 07:19:14;;;;;;;5.07;3.05;;;;;;;;;;10565697;27;20047;-76
2022/09/02 07:24:24;;;;;;;5.35;2.72;;;;;;;;;;10528267;27;20047;-76
2022/09/02 07:29:28;;;;;;;5.40;2.83;;;;;;;;;;10545872;27;20040;-76
2022/09/02 07:34:39;;;;;;;4.25;2.58;;;;;;;;;;10548775;27;20136;-75
2022/09/02 07:39:44;;;;;;;2.90;2.55;;;;;;;;;;10554467;27;20558;-76
2022/09/02 07:44:47;;;;;;;5.13;2.55;;;;;;;;;;10567856;27;20128;-75
2022/09/02 07:50:17;;;;;;;3.10;2.00;;;;;;;;;;10552290;27;20036;-76
2022/09/02 07:55:25;;;;;;;4.30;2.75;;;;;;;;;;10550611;27;20074;-76
2022/09/02 08:00:28;;;;;;;2.70;2.30;;;;;;;;;;10560757;27;20063;-76
2022/09/02 08:05:37;;;;;;;3.65;2.58;;;;;;;;;;10531321;28;20048;-77
2022/09/02 08:10:47;;;;;;;4.68;2.10;;;;;;;;;;10558006;28;20035;-76
2022/09/02 08:15:59;;;;;;;2.67;2.22;;;;;;;;;;10554871;27;20083;-76
2022/09/02 08:21:06;;;;;;;4.80;2.13;;;;;;;;;;10565979;27;20052;-77
2022/09/02 08:26:13;;;;;;;5.50;2.20;;;;;;;;;;10526423;27;20581;-77
2022/09/02 08:31:24;;;;;;;3.60;2.00;;;;;;;;;;10560172;27;20125;-77
2022/09/02 08:36:33;;;;;;;2.92;1.80;;;;;;;;;;10544859;27;20047;-76
2022/09/02 08:41:49;;;;;;;2.65;1.85;;;;;;;;;;10545211;27;20480;-77
2022/09/02 08:47:04;;;;;;;1.88;1.65;;;;;;;;;;10540525;27;20567;-77
2022/09/02 08:52:16;;;;;;;2.67;1.90;;;;;;;;;;10560076;27;20048;-76
2022/09/02 08:57:26;;;;;;;2.22;2.00;;;;;;;;;;10566735;27;20472;-76
2022/09/02 09:02:42;;;;;;;3.45;1.65;;;;;;;;;;10525585;27;20476;-77
2022/09/02 09:07:59;;;;;;;2.25;1.70;;;;;;;;;;10558086;27;20124;-76
2022/09/02 09:13:41;;;;;;;2.10;1.85;;;;;;;;;;10548208;27;20036;-77
2022/09/02 09:18:49;;;;;;;1.90;1.80;;;;;;;;;;10526996;27;20101;-75
2022/09/02 09:23:56;;;;;;;2.30;2.08;;;;;;;;;;10598093;27;20126;-77
2022/09/02 09:29:14;;;;;;;4.78;1.77;;;;;;;;;;10586554;27;20047;-77
2022/09/02 09:34:21;;;;;;;2.20;2.00;;;;;;;;;;10582491;27;20051;-77
2022/09/02 09:39:29;;;;;;;2.33;1.90;;;;;;;;;;10582883;27;20120;-77
2022/09/02 09:44:47;;;;;;;2.65;1.80;;;;;;;;;;10598059;27;20054;-77
2022/09/02 09:49:55;;;;;;;3.70;1.88;;;;;;;;;;10582356;27;20075;-76
2022/09/02 09:55:14;;;;;;;2.30;2.00;;;;;;;;;;10600021;27;20054;-77
2022/09/02 10:00:32;;;;;;;1.73;1.63;;;;;;;;;;10604874;27;20058;-76
2022/09/02 10:05:49;;;;;;;2.25;1.70;;;;;;;;;;10581262;27;20108;-76
2022/09/02 10:11:04;;;;;;;3.47;1.92;;;;;;;;;;10602842;27;20045;-77
2022/09/02 10:16:25;;;;;;;4.33;1.70;;;;;;;;;;10612552;27;20039;-76
2022/09/02 10:21:41;;;;;;;3.38;1.73;;;;;;;;;;10581659;27;20055;-76
2022/09/02 10:27:08;;;;;;;1.80;1.70;;;;;;;;;;10581076;27;20103;-76
2022/09/02 10:32:39;;;;;;;1.70;1.60;;;;;;;;;;10591823;27;20099;-76
2022/09/02 10:37:53;;;;;;;1.85;1.67;;;;;;;;;;10586705;27;20306;-75
2022/09/02 10:43:05;;;;;;;2.38;1.98;;;;;;;;;;10586252;28;20488;-76
2022/09/02 10:48:20;;;;;;;3.03;2.10;;;;;;;;;;10603466;27;20039;-76
2022/09/02 10:53:33;;;;;;;2.90;1.90;;;;;;;;;;10604834;27;20040;-76
2022/09/02 10:59:06;;;;;;;3.38;1.75;;;;;;;;;;10579908;28;20050;-77
2022/09/02 11:04:14;;;;;;;2.30;2.10;;;;;;;;;;10589790;27;20071;-76
2022/09/02 11:09:32;;;;;;;2.85;1.77;;;;;;;;;;10579955;28;20046;-76
2022/09/02 11:14:49;;;;;;;2.42;1.75;;;;;;;;;;10598819;28;20046;-76
2022/09/02 11:20:10;;;;;;;1.88;1.73;;;;;;;;;;10582180;28;20055;-77
2022/09/02 11:25:25;;;;;;;2.10;1.70;;;;;;;;;;10586073;27;20883;-76
2022/09/02 11:30:37;;;;;;;2.92;1.70;;;;;;;;;;10614065;27;20189;-76
2022/09/02 11:35:43;;;;;;;1.85;1.70;;;;;;;;;;10607249;27;20031;-75
2022/09/02 11:41:09;;;;;;;3.92;1.75;;;;;;;;;;10629291;27;20049;-75
2022/09/02 11:47:06;;;;;;;1.90;1.80;;;;;;;;;;10612778;27;20508;-76
2022/09/02 11:52:21;;;;;;;2.50;1.70;;;;;;;;;;10618716;27;20053;-76
2022/09/02 11:57:27;;;;;;;3.45;1.90;;;;;;;;;;10609635;27;20047;-76
2022/09/02 12:02:34;;;;;;;2.10;1.90;;;;;;;;;;10607478;27;20031;-76
2022/09/02 12:07:47;;;;;;;1.77;1.65;;;;;;;;;;10588432;27;20054;-75
2022/09/02 12:13:19;;;;;;;2.15;1.50;;;;;;;;;;10604140;27;20397;-76
2022/09/02 12:18:31;;;;;;;2.55;1.60;;;;;;;;;;10604658;27;20059;-75
2022/09/02 12:23:53;;;;;;;2.83;1.77;;;;;;;;;;10574375;27;20127;-77
2022/09/02 12:29:13;;;;;;;3.80;1.70;;;;;;;;;;10607642;27;20116;-76
2022/09/02 12:34:38;;;;;;;3.33;1.83;;;;;;;;;;10605240;27;20491;-76
2022/09/02 12:39:55;;;;;;;2.28;1.50;;;;;;;;;;10544231;27;20503;-76
2022/09/02 12:45:08;;;;;;;2.30;2.00;;;;;;;;;;10606735;27;20039;-76
2022/09/02 12:50:20;;;;;;;2.88;1.85;;;;;;;;;;10614184;27;20035;-75
2022/09/02 12:55:31;;;;;;;1.60;1.50;;;;;;;;;;10620327;27;20594;-76
2022/09/02 13:00:44;;;;;;;1.98;1.75;;;;;;;;;;10584635;27;20054;-76
2022/09/02 13:05:56;;;;;;;1.40;1.35;;;;;;;;;;10611680;27;20486;-75
2022/09/02 13:16:59;;;;;;;2.85;1.80;;;;;;;;;;10641134;27;20417;-76
2022/09/02 13:22:31;;;;;;;1.98;1.42;;;;;;;;;;10606254;27;20275;-76
2022/09/02 13:28:04;;;;;;;1.52;1.40;;;;;;;;;;10610518;27;20043;-75
2022/09/02 13:33:18;;;;;;;1.60;1.50;;;;;;;;;;10593453;27;20046;-76
2022/09/02 13:38:30;;;;;;;3.45;1.88;;;;;;;;;;10580070;27;20177;-77
2022/09/02 13:43:42;;;;;;;1.67;1.38;;;;;;;;;;10603305;27;20034;-76
2022/09/02 13:48:48;;;;;;;3.17;1.60;;;;;;;;;;10597306;27;20522;-76
2022/09/02 13:53:55;;;;;;;2.83;1.50;;;;;;;;;;10603630;27;20104;-75
2022/09/02 13:59:32;;;;;;;3.25;1.40;;;;;;;;;;10584553;27;20128;-77
2022/09/02 14:10:47;;;;;;;1.45;1.30;;;;;;;;;;10600140;27;20053;-78
2022/09/02 14:16:07;;;;;;;1.60;1.30;;;;;;;;;;10587656;27;20031;-78
2022/09/02 14:21:32;;;;;;;3.15;1.20;;;;;;;;;;10608862;27;20122;-76
2022/09/02 14:26:37;;;;;;;;;;;;;;;;;;10593389;27;20251;-76
2022/09/02 14:32:07;;;;;;;4.35;1.50;;;;;;;;;;10600602;27;19964;-77
2022/09/02 14:37:24;;;;;;;2.80;1.30;;;;;;;;;;10581992;27;20408;-76
2022/09/02 14:42:28;;;;;;;2.30;1.20;;;;;;;;;;10594896;28;20534;-77
2022/09/02 14:47:40;;;;;;;3.15;1.48;;;;;;;;;;10604249;27;20039;-76
2022/09/02 14:52:48;;;;;;;2.30;1.20;;;;;;;;;;10601568;27;20072;-76
2022/09/02 14:58:02;;;;;;;1.20;1.00;;;;;;;;;;10622443;27;20042;-77
2022/09/02 15:03:19;;;;;;;5.13;1.33;;;;;;;;;;10613040;27;20073;-76
2022/09/02 15:08:25;;;;;;;1.48;1.35;;;;;;;;;;10619076;27;20061;-77
2022/09/02 15:13:34;;;;;;;2.13;1.30;;;;;;;;;;10599417;27;20043;-76
2022/09/02 15:18:55;;;;;;;2.45;1.27;;;;;;;;;;10619995;27;20103;-76
2022/09/02 15:24:01;;;;;;;3.42;1.40;;;;;;;;;;10628528;27;20043;-76
2022/09/02 15:29:05;;;;;;;1.30;1.05;;;;;;;;;;10627013;27;20634;-75
2022/09/02 15:34:17;;;;;;;1.30;1.20;;;;;;;;;;10625579;27;20043;-75
2022/09/02 15:39:27;;;;;;;1.80;1.42;;;;;;;;;;10654401;27;20047;-75
2022/09/02 15:44:40;;;;;;;2.63;1.40;;;;;;;;;;10619108;27;20416;-75
2022/09/02 15:49:59;;;;;;;3.05;1.15;;;;;;;;;;10619263;27;20054;-75
2022/09/02 15:55:07;;;;;;;3.38;1.30;;;;;;;;;;10609799;27;20039;-76
2022/09/02 16:00:14;;;;;;;3.70;1.30;;;;;;;;;;10624350;27;20040;-75
2022/09/02 16:05:41;;;;;;;2.33;1.30;;;;;;;;;;10611628;27;20079;-75
2022/09/02 16:10:48;;;;;;;4.65;1.30;;;;;;;;;;10632556;27;20035;-75
2022/09/02 16:15:59;;;;;;;1.75;1.10;;;;;;;;;;10634634;27;20043;-77
2022/09/02 16:21:12;;;;;;;5.57;1.30;;;;;;;;;;10621094;27;20083;-76
2022/09/02 16:26:21;;;;;;;3.03;1.23;;;;;;;;;;10623960;27;20163;-76
2022/09/02 16:31:37;;;;;;;1.45;1.25;;;;;;;;;;10624758;27;20055;-75
2022/09/02 16:37:08;;;;;;;2.10;1.20;;;;;;;;;;10632889;27;20035;-75
2022/09/02 16:42:31;;;;;;;3.10;1.60;;;;;;;;;;10633116;27;20047;-75
2022/09/02 16:47:42;;;;;;;3.75;1.85;;;;;;;;;;10590204;27;20035;-75
2022/09/02 16:52:47;;;;;;;2.45;1.35;;;;;;;;;;10608550;27;20104;-76
2022/09/02 16:58:06;;;;;;;3.85;1.60;;;;;;;;;;10615235;27;20031;-75
2022/09/02 17:03:12;;;;;;;1.55;1.20;;;;;;;;;;10616271;27;20130;-75
2022/09/02 17:08:26;;;;;;;1.55;1.17;;;;;;;;;;10595215;27;20043;-75
2022/09/02 17:13:50;;;;;;;1.73;1.42;;;;;;;;;;10633628;27;20130;-75
2022/09/02 17:18:55;;;;;;;2.85;1.60;;;;;;;;;;10621726;27;20035;-75
2022/09/02 17:24:00;;;;;;;3.88;1.50;;;;;;;;;;10591777;27;20092;-74
2022/09/02 17:29:09;;;;;;;5.50;2.05;;;;;;;;;;10595324;27;20039;-75
2022/09/02 17:34:36;;;;;;;1.77;1.50;;;;;;;;;;10601462;27;20106;-75
2022/09/02 17:39:40;;;;;;;3.15;1.45;;;;;;;;;;10595115;27;20532;-76
2022/09/02 17:44:59;;;;;;;1.52;1.20;;;;;;;;;;10602115;27;20040;-76
2022/09/02 17:55:36;;;;;;;4.10;1.70;;;;;;;;;;10527199;27;20437;-75
2022/09/02 18:00:39;;;;;;;2.88;1.42;;;;;;;;;;10497352;28;20087;-75
2022/09/02 18:05:53;;;;;;;3.13;1.60;;;;;;;;;;10484578;28;20155;-75
2022/09/02 18:11:01;;;;;;;2.20;1.60;;;;;;;;;;10484879;28;20049;-76
2022/09/02 18:16:12;;;;;;;4.80;1.77;;;;;;;;;;10499407;28;20048;-76
2022/09/02 18:21:27;;;;;;;2.42;1.60;;;;;;;;;;10492232;28;20493;-76
2022/09/02 18:26:43;;;;;;;4.28;1.50;;;;;;;;;;10484918;28;20497;-77
2022/09/02 18:31:51;;;;;;;4.38;1.80;;;;;;;;;;10485377;28;20041;-77
2022/09/02 18:36:59;;;;;;;4.15;1.85;;;;;;;;;;10489577;28;20128;-76
2022/09/02 18:42:11;;;;;;;4.38;2.13;;;;;;;;;;10483655;28;20106;-76
2022/09/02 18:47:18;;;;;;;2.97;1.70;;;;;;;;;;10494630;28;20523;-77
2022/09/02 18:52:25;;;;;;;5.00;2.05;;;;;;;;;;10481834;28;20041;-76
2022/09/02 18:57:32;;;;;;;5.40;1.80;;;;;;;;;;10485427;28;20055;-76
2022/09/02 19:02:38;;;;;;;5.65;2.53;;;;;;;;;;10468343;28;20406;-76
2022/09/02 19:13:04;;;;;;;3.30;1.92;;;;;;;;;;10452390;28;20494;-75
2022/09/02 19:18:07;;;;;;;5.18;1.70;;;;;;;;;;10459179;28;20292;-76
2022/09/02 19:23:11;;;;;;;3.87;1.93;;;;;;;;;;10460193;28;20040;-77
2022/09/02 19:28:18;;;;;;;4.65;1.98;;;;;;;;;;10453635;28;20036;-76
2022/09/02 19:33:21;;;;;;;3.33;2.03;;;;;;;;;;10450945;28;20068;-76
2022/09/02 19:38:27;;;;;;;3.70;1.80;;;;;;;;;;10458226;28;20541;-74
2022/09/02 19:43:38;;;;;;;3.67;1.73;;;;;;;;;;10468960;28;20094;-74
2022/09/02 19:48:46;;;;;;;5.82;1.75;;;;;;;;;;10521246;28;20105;-74
2022/09/02 19:53:50;;;;;;;5.40;2.13;;;;;;;;;;10517076;28;20076;-75
2022/09/02 19:58:55;;;;;;;3.78;2.03;;;;;;;;;;10527914;28;20122;-75
2022/09/02 20:04:02;;;;;;;2.53;1.60;;;;;;;;;;10516024;28;20454;-75
2022/09/02 20:09:06;;;;;;;;;;;;;;;;;;10526453;28;20047;-75
2022/09/02 20:14:12;;;;;;;4.60;2.00;;;;;;;;;;10480254;28;19978;-76
2022/09/02 20:19:15;;;;;;;3.88;1.90;;;;;;;;;;10498900;28;20127;-75
2022/09/02 20:24:22;;;;;;;4.97;2.45;;;;;;;;;;10489465;28;20525;-76
2022/09/02 20:29:33;;;;;;;5.57;1.95;;;;;;;;;;10484751;28;20128;-75
2022/09/02 20:34:39;;;;;;;4.50;2.10;;;;;;;;;;10491751;28;20036;-75
2022/09/02 20:39:52;;;;;;;4.95;1.92;;;;;;;;;;10494589;28;20485;-75
2022/09/02 20:45:02;;;;;;;4.32;1.88;;;;;;;;;;10499250;28;20450;-75
2022/09/02 20:50:15;;;;;;;2.72;2.00;;;;;;;;;;10490625;28;20418;-75
2022/09/02 20:55:21;;;;;;;4.60;2.15;;;;;;;;;;10481707;28;20402;-75
2022/09/02 21:00:25;;;;;;;3.33;1.98;;;;;;;;;;10468901;28;20051;-75
2022/09/02 21:05:29;;;;;;;3.33;1.85;;;;;;;;;;10506498;28;20085;-75
2022/09/02 21:10:33;;;;;;;3.60;2.08;;;;;;;;;;10464336;28;20057;-75
2022/09/02 21:15:41;;;;;;;2.95;1.60;;;;;;;;;;10492778;28;20083;-75
2022/09/02 21:20:47;;;;;;;2.30;1.63;;;;;;;;;;10490438;28;20597;-77
2022/09/02 21:25:54;;;;;;;3.88;1.80;;;;;;;;;;10491214;28;20050;-74
2022/09/02 21:31:01;;;;;;;5.18;1.98;;;;;;;;;;10502042;28;20032;-75
2022/09/02 21:36:05;;;;;;;3.03;1.90;;;;;;;;;;10485277;28;20071;-75
2022/09/02 21:41:19;;;;;;;3.80;2.13;;;;;;;;;;10487337;28;20063;-75
2022/09/02 21:46:27;;;;;;;2.92;1.95;;;;;;;;;;10494680;28;20033;-77
2022/09/02 21:51:34;;;;;;;3.58;2.03;;;;;;;;;;10467060;28;20045;-76
2022/09/02 21:56:48;;;;;;;3.20;1.88;;;;;;;;;;10490659;28;20500;-76
2022/09/02 22:01:56;;;;;;;6.18;2.33;;;;;;;;;;10483673;28;20132;-77
2022/09/02 22:07:03;;;;;;;4.53;2.00;;;;;;;;;;10492803;28;20075;-77
2022/09/02 22:12:10;;;;;;;3.70;2.05;;;;;;;;;;10487618;28;20478;-76
2022/09/02 22:17:19;;;;;;;5.28;2.33;;;;;;;;;;10502104;28;20123;-76
2022/09/02 22:22:23;;;;;;;2.88;1.90;;;;;;;;;;10495453;28;20036;-76
2022/09/02 22:27:31;;;;;;;2.92;1.98;;;;;;;;;;10495983;28;20094;-75
2022/09/02 22:32:38;;;;;;;4.25;1.95;;;;;;;;;;10487162;28;20074;-76
2022/09/02 22:37:46;;;;;;;3.13;2.13;;;;;;;;;;10490193;28;20079;-76
2022/09/02 22:42:52;;;;;;;4.22;1.83;;;;;;;;;;10497050;28;20093;-77
2022/09/02 22:53:19;;;;;;;4.43;1.98;;;;;;;;;;10490102;28;20091;-78
2022/09/02 22:58:31;;;;;;;5.65;1.80;;;;;;;;;;10505513;28;20127;-78
2022/09/02 23:03:41;;;;;;;3.63;1.90;;;;;;;;;;10495614;28;20044;-78
2022/09/02 23:08:44;;;;;;;6.13;2.20;;;;;;;;;;10492890;28;20486;-79
2022/09/02 23:13:54;;;;;;;3.73;1.77;;;;;;;;;;10491568;28;20507;-78
2022/09/02 23:19:08;;;;;;;3.65;1.95;;;;;;;;;;10492261;28;20048;-77
2022/09/02 23:24:18;;;;;;;3.75;2.20;;;;;;;;;;10495092;28;20072;-78
2022/09/02 23:29:25;;;;;;;4.15;2.05;;;;;;;;;;10489007;28;20505;-78
2022/09/02 23:34:38;;;;;;;4.05;2.10;;;;;;;;;;10507185;28;20036;-78
2022/09/02 23:39:47;;;;;;;3.90;2.03;;;;;;;;;;10493473;28;20116;-78
2022/09/02 23:44:50;;;;;;;2.60;1.98;;;;;;;;;;10489690;28;20098;-78
2022/09/02 23:50:00;;;;;;;2.47;1.80;;;;;;;;;;10488068;28;20136;-78
2022/09/02 23:55:07;;;;;;;5.47;1.95;;;;;;;;;;10490141;28;20028;-78
